createdAt,value
2019-05-25T00:02:18.988Z,84.90
2019-05-25T00:04:50.799Z,85.20
2019-05-25T00:07:22.561Z,85.30
2019-05-25T00:09:54.258Z,86.00
2019-05-25T00:12:26.138Z,85.20
2019-05-25T00:14:57.926Z,85.30
2019-05-25T00:17:29.664Z,85.30
2019-05-25T00:20:01.539Z,85.30
2019-05-25T00:22:33.542Z,85.40
2019-05-25T00:25:05.492Z,85.40
2019-05-25T00:27:37.144Z,85.60
2019-05-25T00:30:09.846Z,85.60
2019-05-25T00:32:41.467Z,85.60
2019-05-25T00:35:13.652Z,85.70
2019-05-25T00:37:45.355Z,85.80
2019-05-25T00:40:17.136Z,85.90
2019-05-25T00:42:49.262Z,86.00
2019-05-25T00:45:20.956Z,86.00
2019-05-25T00:47:52.710Z,86.20
2019-05-25T00:50:24.438Z,86.40
2019-05-25T00:52:57.007Z,86.50
2019-05-25T00:55:28.791Z,86.70
2019-05-25T00:58:00.460Z,86.80
2019-05-25T01:00:32.557Z,86.90
2019-05-25T01:03:04.374Z,87.00
2019-05-25T01:05:36.131Z,87.00
2019-05-25T01:08:07.945Z,86.80
2019-05-25T01:10:39.560Z,86.90
2019-05-25T01:13:11.228Z,86.90
2019-05-25T01:15:42.934Z,86.90
2019-05-25T01:18:14.594Z,87.00
2019-05-25T01:20:46.491Z,87.00
2019-05-25T01:23:18.711Z,87.00
2019-05-25T01:25:50.375Z,87.00
2019-05-25T01:28:22.092Z,87.00
2019-05-25T01:30:53.513Z,87.50
2019-05-25T01:33:25.463Z,87.60
2019-05-25T01:35:57.206Z,87.90
2019-05-25T01:38:28.977Z,88.20
2019-05-25T01:41:01.059Z,88.40
2019-05-25T01:43:33.178Z,88.60
2019-05-25T01:46:05.018Z,88.80
2019-05-25T01:48:36.772Z,89.10
2019-05-25T01:51:08.424Z,89.30
2019-05-25T01:53:40.081Z,89.40
2019-05-25T01:56:11.693Z,89.60
2019-05-25T01:58:43.611Z,89.50
2019-05-25T02:01:15.584Z,89.60
2019-05-25T02:03:47.228Z,89.50
2019-05-25T02:06:18.755Z,90.00
2019-05-25T02:08:50.518Z,89.10
2019-05-25T02:11:22.362Z,88.60
2019-05-25T02:13:54.212Z,88.20
2019-05-25T02:16:26.065Z,87.90
2019-05-25T02:18:57.739Z,87.60
2019-05-25T02:21:29.198Z,87.40
2019-05-25T02:24:01.157Z,87.10
2019-05-25T02:26:33.129Z,86.70
2019-05-25T02:29:05.017Z,86.60
2019-05-25T02:31:36.762Z,86.60
2019-05-25T02:34:08.510Z,86.80
2019-05-25T02:36:40.242Z,86.80
2019-05-25T02:39:11.681Z,87.00
2019-05-25T02:41:43.281Z,87.40
2019-05-25T02:44:15.258Z,87.50
2019-05-25T02:46:46.748Z,88.50
2019-05-25T02:49:18.578Z,88.10
2019-05-25T02:51:50.394Z,88.20
2019-05-25T02:54:22.175Z,88.60
2019-05-25T02:56:54.070Z,89.60
2019-05-25T02:59:25.622Z,89.80
2019-05-25T03:01:57.534Z,89.30
2019-05-25T03:04:29.402Z,89.40
2019-05-25T03:07:02.512Z,89.50
2019-05-25T03:09:35.476Z,90.00
2019-05-25T03:12:07.255Z,90.10
2019-05-25T03:14:38.944Z,90.20
2019-05-25T03:17:10.433Z,90.40
2019-05-25T03:19:42.359Z,90.50
2019-05-25T03:22:13.920Z,90.60
2019-05-25T03:24:45.993Z,90.60
2019-05-25T03:27:17.723Z,90.60
2019-05-25T03:29:49.255Z,90.60
2019-05-25T03:32:21.529Z,90.60
2019-05-25T03:34:53.218Z,90.50
2019-05-25T03:37:24.976Z,90.50
2019-05-25T03:39:56.944Z,90.50
2019-05-25T03:42:28.744Z,90.30
2019-05-25T03:45:00.562Z,90.30
2019-05-25T03:47:32.709Z,90.10
2019-05-25T03:50:04.693Z,89.80
2019-05-25T03:52:36.405Z,89.40
2019-05-25T03:55:08.392Z,88.90
2019-05-25T03:57:40.024Z,88.20
2019-05-25T04:00:11.879Z,87.60
2019-05-25T04:02:43.717Z,87.00
2019-05-25T04:05:15.929Z,86.40
2019-05-25T04:07:47.775Z,86.20
2019-05-25T04:10:19.500Z,85.90
2019-05-25T04:12:51.619Z,85.80
2019-05-25T04:15:23.127Z,85.70
2019-05-25T04:17:55.015Z,85.40
2019-05-25T04:20:26.859Z,85.20
2019-05-25T04:22:58.915Z,84.60
2019-05-25T04:25:30.979Z,84.30
2019-05-25T04:28:02.403Z,84.20
2019-05-25T04:30:34.246Z,83.90
2019-05-25T04:33:06.279Z,83.70
2019-05-25T04:35:38.106Z,83.30
2019-05-25T04:38:10.021Z,83.00
2019-05-25T04:40:42.003Z,82.70
2019-05-25T04:43:13.528Z,82.60
2019-05-25T04:45:45.973Z,82.40
2019-05-25T04:48:17.870Z,82.00
2019-05-25T04:50:49.466Z,82.00
2019-05-25T04:53:20.867Z,81.80
2019-05-25T04:55:52.658Z,81.70
2019-05-25T04:58:24.591Z,81.30
2019-05-25T05:00:56.465Z,80.90
2019-05-25T05:03:28.156Z,80.00
2019-05-25T05:05:59.974Z,79.40
2019-05-25T05:08:35.399Z,78.80
2019-05-25T05:11:04.952Z,78.20
2019-05-25T05:13:36.578Z,77.60
2019-05-25T05:16:08.593Z,77.50
2019-05-25T05:18:40.715Z,76.80
2019-05-25T05:21:12.684Z,76.20
2019-05-25T05:23:44.466Z,75.50
2019-05-25T05:26:16.395Z,74.80
2019-05-25T05:28:49.267Z,74.50
2019-05-25T05:31:23.780Z,73.80
2019-05-25T05:33:54.632Z,73.00
2019-05-25T05:36:27.444Z,72.10
2019-05-25T05:38:59.738Z,71.30
2019-05-25T05:41:33.303Z,70.20
2019-05-25T05:44:05.835Z,65.00
2019-05-25T05:46:38.588Z,58.90
2019-05-25T05:49:11.197Z,53.40
2019-05-25T05:51:45.718Z,48.40
2019-05-25T05:54:20.001Z,45.60
2019-05-25T05:56:52.090Z,43.60
2019-05-25T05:59:24.216Z,42.50
2019-05-25T06:01:56.078Z,40.90
2019-05-25T06:04:27.417Z,40.30
2019-05-25T06:06:59.107Z,39.30
2019-05-25T06:09:30.894Z,39.10
2019-05-25T06:12:02.717Z,38.80
2019-05-25T06:14:34.654Z,38.40
2019-05-25T06:17:06.440Z,38.50
2019-05-25T06:19:38.005Z,38.30
2019-05-25T06:22:09.960Z,37.70
2019-05-25T06:24:41.732Z,37.90
2019-05-25T06:27:26.281Z,37.90
2019-05-25T06:29:47.680Z,37.60
2019-05-25T06:32:19.545Z,37.00
2019-05-25T06:34:51.924Z,36.40
2019-05-25T06:37:23.849Z,36.40
2019-05-25T06:39:55.756Z,36.80
2019-05-25T06:42:27.582Z,36.30
2019-05-25T06:44:59.503Z,35.90
2019-05-25T06:47:31.477Z,36.00
2019-05-25T06:50:04.615Z,36.30
2019-05-25T06:52:36.740Z,35.80
2019-05-25T06:55:09.082Z,34.40
2019-05-25T06:57:43.507Z,33.40
2019-05-25T07:00:14.906Z,32.40
2019-05-25T07:02:46.768Z,32.40
2019-05-25T07:05:18.908Z,30.70
2019-05-25T07:07:54.391Z,29.70
2019-05-25T07:10:24.898Z,29.30
2019-05-25T07:12:56.707Z,29.10
2019-05-25T07:15:28.554Z,28.90
2019-05-25T07:18:00.346Z,28.50
2019-05-25T07:20:32.484Z,28.30
2019-05-25T07:23:04.286Z,28.30
2019-05-25T07:25:36.090Z,28.00
2019-05-25T07:28:08.147Z,27.50
2019-05-25T07:30:40.902Z,27.30
2019-05-25T07:33:12.889Z,27.00
2019-05-25T07:35:44.684Z,26.70
2019-05-25T07:38:16.804Z,27.00
2019-05-25T07:40:48.990Z,27.40
2019-05-25T07:43:21.266Z,27.60
2019-05-25T07:45:53.113Z,27.30
2019-05-25T07:48:25.054Z,27.40
2019-05-25T07:50:57.112Z,27.10
2019-05-25T07:53:29.175Z,26.90
2019-05-25T07:56:01.798Z,26.70
2019-05-25T07:58:34.656Z,26.80
2019-05-25T08:01:06.819Z,27.00
2019-05-25T08:03:39.928Z,27.20
2019-05-25T08:06:12.179Z,27.10
2019-05-25T08:08:44.344Z,27.00
2019-05-25T08:11:16.203Z,26.90
2019-05-25T08:13:48.252Z,26.70
2019-05-25T08:16:20.054Z,26.50
2019-05-25T08:18:51.810Z,26.10
2019-05-25T08:21:24.026Z,26.00
2019-05-25T08:23:56.343Z,26.00
2019-05-25T08:26:28.530Z,26.10
2019-05-25T08:29:00.520Z,26.40
2019-05-25T08:31:32.602Z,26.50
2019-05-25T08:34:04.787Z,26.40
2019-05-25T08:36:36.810Z,26.60
2019-05-25T08:39:09.459Z,26.60
2019-05-25T08:41:44.864Z,26.70
2019-05-25T08:44:15.133Z,26.50
2019-05-25T08:46:47.034Z,26.50
2019-05-25T08:49:19.125Z,26.80
2019-05-25T08:51:54.782Z,27.40
2019-05-25T08:54:25.818Z,27.60
2019-05-25T08:56:58.703Z,27.80
2019-05-25T08:59:30.525Z,27.40
2019-05-25T09:02:02.518Z,27.40
2019-05-25T09:04:35.296Z,27.70
2019-05-25T09:07:07.254Z,27.80
2019-05-25T09:09:45.309Z,28.30
2019-05-25T09:12:17.380Z,28.50
2019-05-25T09:14:49.590Z,28.80
2019-05-25T09:17:21.405Z,28.80
2019-05-25T09:19:53.671Z,28.70
2019-05-25T09:22:25.605Z,28.70
2019-05-25T09:24:57.645Z,28.70
2019-05-25T09:27:29.771Z,28.70
2019-05-25T09:30:02.042Z,28.80
2019-05-25T09:32:34.402Z,28.40
2019-05-25T09:35:08.419Z,28.30
2019-05-25T09:37:40.609Z,28.30
2019-05-25T09:40:12.720Z,28.40
2019-05-25T09:42:44.698Z,29.00
2019-05-25T09:45:16.945Z,29.50
2019-05-25T09:47:48.942Z,29.90
2019-05-25T09:50:21.194Z,30.30
2019-05-25T09:52:54.030Z,31.30
2019-05-25T09:55:26.092Z,32.30
2019-05-25T09:57:58.141Z,32.80
2019-05-25T10:00:31.268Z,33.40
2019-05-25T10:03:02.946Z,33.80
2019-05-25T10:05:35.098Z,34.30
2019-05-25T10:08:07.016Z,34.50
2019-05-25T10:10:38.974Z,35.30
2019-05-25T10:13:11.191Z,35.60
2019-05-25T10:15:42.993Z,35.70
2019-05-25T10:18:15.101Z,35.60
2019-05-25T10:20:46.876Z,35.80
2019-05-25T10:23:18.892Z,36.00
2019-05-25T10:25:51.053Z,35.40
2019-05-25T10:28:23.144Z,36.00
2019-05-25T10:30:55.210Z,36.40
2019-05-25T10:33:27.450Z,36.80
2019-05-25T10:35:59.381Z,36.90
2019-05-25T10:38:31.770Z,36.70
2019-05-25T10:41:04.134Z,36.70
2019-05-25T10:43:35.906Z,36.80
2019-05-25T10:46:07.983Z,36.80
2019-05-25T10:48:40.007Z,37.20
2019-05-25T10:51:12.304Z,37.50
2019-05-25T10:53:44.359Z,37.70
2019-05-25T10:56:16.128Z,38.00
2019-05-25T10:58:48.306Z,37.60
2019-05-25T11:01:20.461Z,37.60
2019-05-25T11:03:52.285Z,37.70
2019-05-25T11:06:24.705Z,38.00
2019-05-25T11:08:56.750Z,37.90
2019-05-25T11:11:28.516Z,37.90
2019-05-25T11:14:00.410Z,37.60
2019-05-25T11:16:32.502Z,37.30
2019-05-25T11:19:04.414Z,37.20
2019-05-25T11:21:37.256Z,37.20
2019-05-25T11:24:09.192Z,37.20
2019-05-25T11:26:41.498Z,37.00
2019-05-25T11:29:13.529Z,37.50
2019-05-25T11:31:54.570Z,37.70
2019-05-25T11:34:19.896Z,38.00
2019-05-25T11:36:51.955Z,38.00
2019-05-25T11:39:23.884Z,37.80
2019-05-25T11:41:56.057Z,37.50
2019-05-25T11:44:28.068Z,37.50
2019-05-25T11:47:00.284Z,38.20
2019-05-25T11:49:32.222Z,37.60
2019-05-25T11:52:04.622Z,37.60
2019-05-25T11:54:36.512Z,37.70
2019-05-25T11:57:08.868Z,38.00
2019-05-25T11:59:41.132Z,37.70
2019-05-25T12:02:13.095Z,37.40
2019-05-25T12:04:45.546Z,37.00
2019-05-25T12:07:17.466Z,36.80
2019-05-25T12:09:49.652Z,36.90
2019-05-25T12:12:23.239Z,37.20
2019-05-25T12:14:55.237Z,37.30
2019-05-25T12:17:27.312Z,37.60
2019-05-25T12:19:59.243Z,37.50
2019-05-25T12:22:31.186Z,37.20
2019-05-25T12:25:03.183Z,37.20
2019-05-25T12:27:35.483Z,37.20
2019-05-25T12:30:08.176Z,36.80
2019-05-25T12:32:40.195Z,36.70
2019-05-25T12:35:12.100Z,36.70
2019-05-25T12:37:44.071Z,37.00
2019-05-25T12:40:17.045Z,37.30
2019-05-25T12:42:49.302Z,37.60
2019-05-25T12:45:21.889Z,37.70
2019-05-25T12:47:54.322Z,37.80
2019-05-25T12:50:26.606Z,38.00
2019-05-25T12:52:58.671Z,38.20
2019-05-25T12:55:30.955Z,38.30
2019-05-25T12:58:02.841Z,38.80
2019-05-25T13:00:34.883Z,39.20
2019-05-25T13:03:10.701Z,39.50
2019-05-25T13:05:40.707Z,40.20
2019-05-25T13:08:12.472Z,40.60
2019-05-25T13:10:44.571Z,40.80
2019-05-25T13:13:16.329Z,40.60
2019-05-25T13:15:48.308Z,40.40
2019-05-25T13:18:20.795Z,40.30
2019-05-25T13:20:52.508Z,40.20
2019-05-25T13:23:24.623Z,40.20
2019-05-25T13:25:56.609Z,39.90
2019-05-25T13:28:28.455Z,39.50
2019-05-25T13:31:11.254Z,38.70
2019-05-25T13:33:33.779Z,38.70
2019-05-25T13:36:05.627Z,39.60
2019-05-25T13:38:40.285Z,39.90
2019-05-25T13:41:12.513Z,40.20
2019-05-25T13:43:44.779Z,40.30
2019-05-25T13:46:16.551Z,40.60
2019-05-25T13:48:48.559Z,40.50
2019-05-25T13:51:20.477Z,40.80
2019-05-25T13:53:52.445Z,40.80
2019-05-25T13:56:24.314Z,40.60
2019-05-25T13:58:56.462Z,40.60
2019-05-25T14:01:29.000Z,40.70
2019-05-25T14:04:02.063Z,40.70
2019-05-25T14:06:34.169Z,40.80
2019-05-25T14:09:07.045Z,40.90
2019-05-25T14:11:39.104Z,41.00
2019-05-25T14:14:10.992Z,41.10
2019-05-25T14:16:42.903Z,40.90
2019-05-25T14:19:15.272Z,40.70
2019-05-25T14:21:47.451Z,40.70
2019-05-25T14:24:19.363Z,40.70
2019-05-25T14:26:51.643Z,41.10
2019-05-25T14:29:26.206Z,41.50
2019-05-25T14:31:57.331Z,42.00
2019-05-25T14:34:28.514Z,42.40
2019-05-25T14:37:01.000Z,42.50
2019-05-25T14:39:32.855Z,42.80
2019-05-25T14:42:04.931Z,43.00
2019-05-25T14:44:37.220Z,43.20
2019-05-25T14:47:09.635Z,43.70
2019-05-25T14:49:42.696Z,42.60
2019-05-25T14:52:14.778Z,42.40
2019-05-25T14:54:46.967Z,42.50
2019-05-25T14:57:19.948Z,42.60
2019-05-25T14:59:51.606Z,42.10
2019-05-25T15:02:23.534Z,41.70
2019-05-25T15:04:56.105Z,41.50
2019-05-25T15:07:28.260Z,41.30
2019-05-25T15:10:00.023Z,41.50
2019-05-25T15:12:32.233Z,41.60
2019-05-25T15:15:04.336Z,42.40
2019-05-25T15:17:37.427Z,41.90
2019-05-25T15:20:11.065Z,41.90
2019-05-25T15:22:46.500Z,41.80
2019-05-25T15:25:17.298Z,41.90
2019-05-25T15:27:49.250Z,42.00
2019-05-25T15:30:21.362Z,42.00
2019-05-25T15:32:53.164Z,41.60
2019-05-25T15:35:24.644Z,41.40
2019-05-25T15:37:57.202Z,41.60
2019-05-25T15:40:28.931Z,41.70
2019-05-25T15:43:01.040Z,41.40
2019-05-25T15:45:33.263Z,41.70
2019-05-25T15:48:05.303Z,41.10
2019-05-25T15:50:37.152Z,41.10
2019-05-25T15:53:09.866Z,41.20
2019-05-25T15:55:42.015Z,41.20
2019-05-25T15:58:13.833Z,41.20
2019-05-25T16:00:49.879Z,41.10
2019-05-25T16:03:22.573Z,41.10
2019-05-25T16:05:54.602Z,41.10
2019-05-25T16:08:27.225Z,40.80
2019-05-25T16:10:59.021Z,40.60
2019-05-25T16:13:31.049Z,40.70
2019-05-25T16:16:03.104Z,40.90
2019-05-25T16:18:34.944Z,41.10
2019-05-25T16:21:07.449Z,41.20
2019-05-25T16:23:39.415Z,41.50
2019-05-25T16:26:11.346Z,41.70
2019-05-25T16:28:43.337Z,41.80
2019-05-25T16:31:15.159Z,42.00
2019-05-25T16:33:46.826Z,42.00
2019-05-25T16:36:18.664Z,42.50
2019-05-25T16:38:50.823Z,42.90
2019-05-25T16:41:22.793Z,43.50
2019-05-25T16:43:54.479Z,44.30
2019-05-25T16:46:26.800Z,44.70
2019-05-25T16:48:58.765Z,45.00
2019-05-25T16:51:30.567Z,45.50
2019-05-25T16:54:02.862Z,46.00
2019-05-25T16:56:34.956Z,46.30
2019-05-25T16:59:06.670Z,46.50
2019-05-25T17:01:48.306Z,47.00
2019-05-25T17:04:12.247Z,47.20
2019-05-25T17:06:44.291Z,47.60
2019-05-25T17:09:16.366Z,47.90
2019-05-25T17:11:48.870Z,48.20
2019-05-25T17:14:20.832Z,48.20
2019-05-25T17:16:54.251Z,48.40
2019-05-25T17:19:26.267Z,48.70
2019-05-25T17:21:58.448Z,49.00
2019-05-25T17:24:30.481Z,49.30
2019-05-25T17:27:02.220Z,49.40
2019-05-25T17:29:34.038Z,49.70
2019-05-25T17:32:06.204Z,50.20
2019-05-25T17:34:37.386Z,50.60
2019-05-25T17:37:09.103Z,51.00
2019-05-25T17:39:41.079Z,51.40
2019-05-25T17:42:13.435Z,52.40
2019-05-25T17:44:45.226Z,52.90
2019-05-25T17:47:17.043Z,53.20
2019-05-25T17:49:49.244Z,53.70
2019-05-25T17:52:22.885Z,54.20
2019-05-25T17:54:55.703Z,54.50
2019-05-25T17:57:27.980Z,54.60
2019-05-25T17:59:59.995Z,54.80
2019-05-25T18:02:31.749Z,55.10
2019-05-25T18:05:03.561Z,55.50
2019-05-25T18:07:35.481Z,55.70
2019-05-25T18:10:08.109Z,55.90
2019-05-25T18:12:40.830Z,56.50
2019-05-25T18:15:13.151Z,56.50
2019-05-25T18:17:44.333Z,57.00
2019-05-25T18:20:17.799Z,57.50
2019-05-25T18:22:49.877Z,56.80
2019-05-25T18:25:22.011Z,56.50
2019-05-25T18:27:53.908Z,57.00
2019-05-25T18:30:27.559Z,56.20
2019-05-25T18:32:59.176Z,56.10
2019-05-25T18:35:31.129Z,56.10
2019-05-25T18:38:03.143Z,56.20
2019-05-25T18:40:35.463Z,56.30
2019-05-25T18:43:08.538Z,56.30
2019-05-25T18:45:40.559Z,57.20
2019-05-25T18:48:12.166Z,56.80
2019-05-25T18:50:44.394Z,57.10
2019-05-25T18:53:16.331Z,57.40
2019-05-25T18:55:48.213Z,57.50
2019-05-25T18:58:20.413Z,57.80
2019-05-25T19:00:52.421Z,57.90
2019-05-25T19:03:24.524Z,58.00
2019-05-25T19:05:56.464Z,58.40
2019-05-25T19:08:28.676Z,58.50
2019-05-25T19:11:00.986Z,58.50
2019-05-25T19:13:33.121Z,58.60
2019-05-25T19:16:05.057Z,58.80
2019-05-25T19:18:37.032Z,58.40
2019-05-25T19:21:08.846Z,59.20
2019-05-25T19:23:40.864Z,59.80
2019-05-25T19:26:14.329Z,60.30
2019-05-25T19:28:46.321Z,60.80
2019-05-25T19:31:18.141Z,61.30
2019-05-25T19:33:50.090Z,61.50
2019-05-25T19:36:21.908Z,62.30
2019-05-25T19:38:53.758Z,62.90
2019-05-25T19:41:25.739Z,63.40
2019-05-25T19:43:57.537Z,63.30
2019-05-25T19:46:29.515Z,63.60
2019-05-25T19:49:01.264Z,64.00
2019-05-25T19:51:33.170Z,64.30
2019-05-25T19:54:05.026Z,64.20
2019-05-25T19:56:37.258Z,64.40
2019-05-25T19:59:09.382Z,64.10
2019-05-25T20:01:41.239Z,64.20
2019-05-25T20:04:12.977Z,64.40
2019-05-25T20:06:44.908Z,64.30
2019-05-25T20:09:16.909Z,64.30
2019-05-25T20:11:49.079Z,64.40
2019-05-25T20:14:21.176Z,64.70
2019-05-25T20:16:53.194Z,64.60
2019-05-25T20:19:24.954Z,64.70
2019-05-25T20:21:56.796Z,64.40
2019-05-25T20:24:28.614Z,64.30
2019-05-25T20:27:01.650Z,64.30
2019-05-25T20:29:33.569Z,64.40
2019-05-25T20:32:05.549Z,64.50
2019-05-25T20:34:37.084Z,64.40
2019-05-25T20:37:08.936Z,64.60
2019-05-25T20:39:40.900Z,64.60
2019-05-25T20:42:15.099Z,64.90
2019-05-25T20:44:46.838Z,65.00
2019-05-25T20:47:18.856Z,64.90
2019-05-25T20:49:51.192Z,64.80
2019-05-25T20:52:23.309Z,65.00
2019-05-25T20:54:55.463Z,65.60
2019-05-25T20:57:27.476Z,65.90
2019-05-25T20:59:59.406Z,66.20
2019-05-25T21:02:31.552Z,66.50
2019-05-25T21:05:03.218Z,66.70
2019-05-25T21:07:35.412Z,66.90
2019-05-25T21:10:07.914Z,67.00
2019-05-25T21:12:39.988Z,67.20
2019-05-25T21:15:13.163Z,67.10
2019-05-25T21:17:44.864Z,67.20
2019-05-25T21:20:17.471Z,67.30
2019-05-25T21:22:49.828Z,67.30
2019-05-25T21:25:21.559Z,67.40
2019-05-25T21:27:53.610Z,67.40
2019-05-25T21:30:25.513Z,67.10
2019-05-25T21:32:57.248Z,66.80
2019-05-25T21:35:29.172Z,66.90
2019-05-25T21:38:00.797Z,66.70
2019-05-25T21:40:32.706Z,66.50
2019-05-25T21:43:04.125Z,66.20
2019-05-25T21:45:35.930Z,66.20
2019-05-25T21:48:07.651Z,66.00
2019-05-25T21:50:40.276Z,66.20
2019-05-25T21:53:12.007Z,66.10
2019-05-25T21:55:44.193Z,66.30
2019-05-25T21:58:15.984Z,66.20
2019-05-25T22:00:48.435Z,66.00
2019-05-25T22:03:19.801Z,65.60
2019-05-25T22:05:51.687Z,65.50
2019-05-25T22:08:23.350Z,65.60
2019-05-25T22:10:55.312Z,65.90
2019-05-25T22:13:28.845Z,66.00
2019-05-25T22:16:01.054Z,66.40
2019-05-25T22:18:32.956Z,66.90
2019-05-25T22:21:04.734Z,67.30
2019-05-25T22:23:36.646Z,67.50
2019-05-25T22:26:08.518Z,67.60
2019-05-25T22:28:44.651Z,68.00
2019-05-25T22:31:13.935Z,67.80
2019-05-25T22:33:45.630Z,68.00
2019-05-25T22:36:17.584Z,68.20
2019-05-25T22:38:49.471Z,68.20
2019-05-25T22:41:21.045Z,68.40
2019-05-25T22:43:52.748Z,69.50
2019-05-25T22:46:24.572Z,68.90
2019-05-25T22:48:56.219Z,68.90
2019-05-25T22:51:28.129Z,68.50
2019-05-25T22:53:59.822Z,68.80
2019-05-25T22:56:31.542Z,69.10
2019-05-25T22:59:03.420Z,69.30
2019-05-25T23:01:35.441Z,69.60
2019-05-25T23:04:07.285Z,69.90
2019-05-25T23:06:38.829Z,69.90
2019-05-25T23:09:10.637Z,70.20
2019-05-25T23:11:42.665Z,70.70
2019-05-25T23:14:14.727Z,71.10
2019-05-25T23:16:46.795Z,71.70
2019-05-25T23:19:19.079Z,72.20
2019-05-25T23:21:50.987Z,72.50
2019-05-25T23:24:22.956Z,72.80
2019-05-25T23:26:54.646Z,73.30
2019-05-25T23:29:26.434Z,73.70
2019-05-25T23:31:58.026Z,74.20
2019-05-25T23:34:29.876Z,74.50
2019-05-25T23:37:14.071Z,75.00
2019-05-25T23:39:35.077Z,75.40
2019-05-25T23:42:07.035Z,75.60
2019-05-25T23:44:38.943Z,76.00
2019-05-25T23:47:10.905Z,76.30
2019-05-25T23:49:42.616Z,76.90
2019-05-25T23:52:14.579Z,77.10
2019-05-25T23:54:46.423Z,77.40
2019-05-25T23:57:18.216Z,77.60
2019-05-25T23:59:49.858Z,78.00
